sensor_id;sensor_type;location;lat;lon;timestamp;pressure;altitude;pressure_sealevel;temperature;humidity
48668;BME280;34453;52.198;5.004;2023-04-29T00:00:33;101695.09;;;9.62;100.00
48668;BME280;34453;52.198;5.004;2023-04-29T00:02:58;101698.88;;;9.58;100.00
48668;BME280;34453;52.198;5.004;2023-04-29T00:05:25;101691.28;;;9.54;100.00
48668;BME280;34453;52.198;5.004;2023-04-29T00:07:51;101702.31;;;9.58;100.00
48668;BME280;34453;52.198;5.004;2023-04-29T00:10:17;101701.28;;;9.61;100.00
48668;BME280;34453;52.198;5.004;2023-04-29T00:12:42;101700.56;;;9.59;100.00
48668;BME280;34453;52.198;5.004;2023-04-29T00:15:08;101706.38;;;9.62;100.00
48668;BME280;34453;52.198;5.004;2023-04-29T00:17:34;101702.00;;;9.63;100.00
48668;BME280;34453;52.198;5.004;2023-04-29T00:19:59;101703.56;;;9.65;100.00
48668;BME280;34453;52.198;5.004;2023-04-29T00:22:25;101700.81;;;9.67;100.00
48668;BME280;34453;52.198;5.004;2023-04-29T00:24:50;101716.38;;;9.68;100.00
48668;BME280;34453;52.198;5.004;2023-04-29T00:27:17;101713.66;;;9.70;100.00
48668;BME280;34453;52.198;5.004;2023-04-29T00:29:43;101718.06;;;9.69;100.00
48668;BME280;34453;52.198;5.004;2023-04-29T00:32:08;101723.16;;;9.71;100.00
48668;BME280;34453;52.198;5.004;2023-04-29T00:34:33;101720.53;;;9.71;100.00
48668;BME280;34453;52.198;5.004;2023-04-29T00:36:59;101732.69;;;9.72;100.00
48668;BME280;34453;52.198;5.004;2023-04-29T00:39:24;101728.72;;;9.66;100.00
48668;BME280;34453;52.198;5.004;2023-04-29T00:41:51;101728.63;;;9.68;100.00
48668;BME280;34453;52.198;5.004;2023-04-29T00:44:16;101731.44;;;9.65;100.00
48668;BME280;34453;52.198;5.004;2023-04-29T00:46:42;101729.78;;;9.64;100.00
48668;BME280;34453;52.198;5.004;2023-04-29T00:49:08;101734.28;;;9.62;100.00
48668;BME280;34453;52.198;5.004;2023-04-29T00:51:35;101739.03;;;9.57;100.00
48668;BME280;34453;52.198;5.004;2023-04-29T00:54:03;101736.53;;;9.55;100.00
48668;BME280;34453;52.198;5.004;2023-04-29T00:56:30;101736.88;;;9.50;100.00
48668;BME280;34453;52.198;5.004;2023-04-29T00:58:57;101747.31;;;9.50;100.00
48668;BME280;34453;52.198;5.004;2023-04-29T01:01:22;101744.47;;;9.53;100.00
48668;BME280;34453;52.198;5.004;2023-04-29T01:03:49;101747.06;;;9.53;100.00
48668;BME280;34453;52.198;5.004;2023-04-29T01:06:44;101740.91;;;9.54;100.00
48668;BME280;34453;52.198;5.004;2023-04-29T01:09:26;101743.63;;;9.53;100.00
48668;BME280;34453;52.198;5.004;2023-04-29T01:12:19;101740.19;;;9.52;100.00
48668;BME280;34453;52.198;5.004;2023-04-29T01:14:53;101741.75;;;9.55;100.00
48668;BME280;34453;52.198;5.004;2023-04-29T01:17:23;101751.47;;;9.53;100.00
48668;BME280;34453;52.198;5.004;2023-04-29T01:19:54;101759.94;;;9.57;100.00
48668;BME280;34453;52.198;5.004;2023-04-29T01:22:21;101758.25;;;9.55;100.00
48668;BME280;34453;52.198;5.004;2023-04-29T01:24:47;101749.69;;;9.53;100.00
48668;BME280;34453;52.198;5.004;2023-04-29T01:30:29;101751.03;;;9.59;100.00
48668;BME280;34453;52.198;5.004;2023-04-29T01:33:00;101760.66;;;9.59;100.00
48668;BME280;34453;52.198;5.004;2023-04-29T01:37:56;101767.53;;;9.60;100.00
48668;BME280;34453;52.198;5.004;2023-04-29T01:40:25;101759.09;;;9.56;100.00
48668;BME280;34453;52.198;5.004;2023-04-29T01:43:01;101771.09;;;9.59;100.00
48668;BME280;34453;52.198;5.004;2023-04-29T01:45:27;101766.59;;;9.61;100.00
48668;BME280;34453;52.198;5.004;2023-04-29T01:47:54;101778.72;;;9.62;100.00
48668;BME280;34453;52.198;5.004;2023-04-29T01:50:23;101773.47;;;9.62;100.00
48668;BME280;34453;52.198;5.004;2023-04-29T01:52:48;101775.16;;;9.63;100.00
48668;BME280;34453;52.198;5.004;2023-04-29T01:55:13;101775.03;;;9.64;100.00
48668;BME280;34453;52.198;5.004;2023-04-29T01:57:39;101776.81;;;9.64;100.00
48668;BME280;34453;52.198;5.004;2023-04-29T02:00:05;101770.63;;;9.65;100.00
48668;BME280;34453;52.198;5.004;2023-04-29T02:02:31;101775.16;;;9.63;100.00
48668;BME280;34453;52.198;5.004;2023-04-29T02:04:57;101777.88;;;9.61;100.00
48668;BME280;34453;52.198;5.004;2023-04-29T02:07:22;101780.06;;;9.67;100.00
48668;BME280;34453;52.198;5.004;2023-04-29T02:09:48;101783.50;;;9.68;100.00
48668;BME280;34453;52.198;5.004;2023-04-29T02:12:13;101786.00;;;9.69;100.00
48668;BME280;34453;52.198;5.004;2023-04-29T02:14:39;101788.72;;;9.68;100.00
48668;BME280;34453;52.198;5.004;2023-04-29T02:17:04;101797.50;;;9.67;100.00
48668;BME280;34453;52.198;5.004;2023-04-29T02:19:29;101792.25;;;9.67;100.00
48668;BME280;34453;52.198;5.004;2023-04-29T02:21:55;101787.75;;;9.69;100.00
48668;BME280;34453;52.198;5.004;2023-04-29T02:24:20;101795.59;;;9.69;100.00
48668;BME280;34453;52.198;5.004;2023-04-29T02:26:46;101804.41;;;9.68;100.00
48668;BME280;34453;52.198;5.004;2023-04-29T02:29:11;101804.59;;;9.65;100.00
48668;BME280;34453;52.198;5.004;2023-04-29T02:31:36;101806.63;;;9.61;100.00
48668;BME280;34453;52.198;5.004;2023-04-29T02:34:02;101816.13;;;9.62;100.00
48668;BME280;34453;52.198;5.004;2023-04-29T02:36:28;101815.72;;;9.55;100.00
48668;BME280;34453;52.198;5.004;2023-04-29T02:38:54;101817.28;;;9.58;100.00
48668;BME280;34453;52.198;5.004;2023-04-29T02:41:21;101823.13;;;9.62;100.00
48668;BME280;34453;52.198;5.004;2023-04-29T02:43:46;101823.84;;;9.64;100.00
48668;BME280;34453;52.198;5.004;2023-04-29T02:46:13;101830.03;;;9.63;100.00
48668;BME280;34453;52.198;5.004;2023-04-29T02:48:39;101833.47;;;9.63;100.00
48668;BME280;34453;52.198;5.004;2023-04-29T02:51:05;101831.94;;;9.61;100.00
48668;BME280;34453;52.198;5.004;2023-04-29T02:53:31;101826.47;;;9.64;100.00
48668;BME280;34453;52.198;5.004;2023-04-29T02:55:56;101836.19;;;9.62;100.00
48668;BME280;34453;52.198;5.004;2023-04-29T02:58:23;101836.91;;;9.64;100.00
48668;BME280;34453;52.198;5.004;2023-04-29T03:00:48;101836.19;;;9.62;100.00
48668;BME280;34453;52.198;5.004;2023-04-29T03:03:14;101838.69;;;9.63;100.00
48668;BME280;34453;52.198;5.004;2023-04-29T03:05:40;101838.50;;;9.53;100.00
48668;BME280;34453;52.198;5.004;2023-04-29T03:08:05;101835.56;;;9.58;100.00
48668;BME280;34453;52.198;5.004;2023-04-29T03:10:31;101844.03;;;9.62;100.00
48668;BME280;34453;52.198;5.004;2023-04-29T03:12:57;101843.31;;;9.60;100.00
48668;BME280;34453;52.198;5.004;2023-04-29T03:15:23;101845.00;;;9.61;100.00
48668;BME280;34453;52.198;5.004;2023-04-29T03:17:48;101856.47;;;9.58;100.00
48668;BME280;34453;52.198;5.004;2023-04-29T03:20:13;101849.50;;;9.59;100.00
48668;BME280;34453;52.198;5.004;2023-04-29T03:22:39;101851.13;;;9.60;100.00
48668;BME280;34453;52.198;5.004;2023-04-29T03:25:05;101849.34;;;9.60;100.00
48668;BME280;34453;52.198;5.004;2023-04-29T03:27:31;101861.38;;;9.63;100.00
48668;BME280;34453;52.198;5.004;2023-04-29T03:29:56;101860.44;;;9.64;100.00
48668;BME280;34453;52.198;5.004;2023-04-29T03:32:22;101865.75;;;9.62;100.00
48668;BME280;34453;52.198;5.004;2023-04-29T03:34:48;101852.69;;;9.62;100.00
48668;BME280;34453;52.198;5.004;2023-04-29T03:37:13;101857.09;;;9.62;100.00
48668;BME280;34453;52.198;5.004;2023-04-29T03:39:40;101861.50;;;9.61;100.00
48668;BME280;34453;52.198;5.004;2023-04-29T03:42:06;101867.31;;;9.65;100.00
48668;BME280;34453;52.198;5.004;2023-04-29T03:44:31;101863.16;;;9.62;100.00
48668;BME280;34453;52.198;5.004;2023-04-29T03:46:57;101869.34;;;9.61;100.00
48668;BME280;34453;52.198;5.004;2023-04-29T03:49:22;101871.31;;;9.58;100.00
48668;BME280;34453;52.198;5.004;2023-04-29T03:51:48;101868.69;;;9.58;100.00
48668;BME280;34453;52.198;5.004;2023-04-29T03:54:13;101873.00;;;9.59;100.00
48668;BME280;34453;52.198;5.004;2023-04-29T03:56:39;101871.44;;;9.56;100.00
48668;BME280;34453;52.198;5.004;2023-04-29T03:59:05;101872.28;;;9.57;100.00
48668;BME280;34453;52.198;5.004;2023-04-29T04:01:30;101877.50;;;9.57;100.00
48668;BME280;34453;52.198;5.004;2023-04-29T04:03:56;101873.00;;;9.59;100.00
48668;BME280;34453;52.198;5.004;2023-04-29T04:06:22;101880.94;;;9.57;100.00
48668;BME280;34453;52.198;5.004;2023-04-29T04:08:47;101894.09;;;9.55;100.00
48668;BME280;34453;52.198;5.004;2023-04-29T04:11:13;101888.16;;;9.53;100.00
48668;BME280;34453;52.198;5.004;2023-04-29T04:13:42;101888.16;;;9.53;100.00
48668;BME280;34453;52.198;5.004;2023-04-29T04:16:09;101897.88;;;9.51;100.00
48668;BME280;34453;52.198;5.004;2023-04-29T04:18:35;101903.09;;;9.51;100.00
48668;BME280;34453;52.198;5.004;2023-04-29T04:21:08;101902.25;;;9.51;100.00
48668;BME280;34453;52.198;5.004;2023-04-29T04:23:34;101899.56;;;9.52;100.00
48668;BME280;34453;52.198;5.004;2023-04-29T04:26:00;101895.97;;;9.53;100.00
48668;BME280;34453;52.198;5.004;2023-04-29T04:28:26;101904.56;;;9.55;100.00
48668;BME280;34453;52.198;5.004;2023-04-29T04:30:51;101907.63;;;9.49;100.00
48668;BME280;34453;52.198;5.004;2023-04-29T04:33:17;101909.91;;;9.54;100.00
48668;BME280;34453;52.198;5.004;2023-04-29T04:35:42;101920.22;;;9.55;100.00
48668;BME280;34453;52.198;5.004;2023-04-29T04:38:08;101913.34;;;9.54;100.00
48668;BME280;34453;52.198;5.004;2023-04-29T04:40:35;101920.34;;;9.54;100.00
48668;BME280;34453;52.198;5.004;2023-04-29T04:43:01;101928.38;;;9.51;100.00
48668;BME280;34453;52.198;5.004;2023-04-29T04:45:29;101932.78;;;9.50;100.00
48668;BME280;34453;52.198;5.004;2023-04-29T04:47:55;101934.66;;;9.48;100.00
48668;BME280;34453;52.198;5.004;2023-04-29T04:50:21;101941.59;;;9.49;100.00
48668;BME280;34453;52.198;5.004;2023-04-29T04:52:46;101952.22;;;9.46;100.00
48668;BME280;34453;52.198;5.004;2023-04-29T04:55:12;101956.38;;;9.49;100.00
48668;BME280;34453;52.198;5.004;2023-04-29T04:57:37;101962.34;;;9.51;100.00
48668;BME280;34453;52.198;5.004;2023-04-29T05:00:03;101957.84;;;9.53;100.00
48668;BME280;34453;52.198;5.004;2023-04-29T05:02:29;101962.25;;;9.52;100.00
48668;BME280;34453;52.198;5.004;2023-04-29T05:04:55;101966.53;;;9.53;100.00
48668;BME280;34453;52.198;5.004;2023-04-29T05:07:20;101958.50;;;9.57;100.00
48668;BME280;34453;52.198;5.004;2023-04-29T05:09:46;101969.88;;;9.55;100.00
48668;BME280;34453;52.198;5.004;2023-04-29T05:12:11;101970.09;;;9.52;100.00
48668;BME280;34453;52.198;5.004;2023-04-29T05:14:36;101972.69;;;9.52;100.00
48668;BME280;34453;52.198;5.004;2023-04-29T05:17:02;101974.16;;;9.57;100.00
48668;BME280;34453;52.198;5.004;2023-04-29T05:19:27;101980.31;;;9.55;100.00
48668;BME280;34453;52.198;5.004;2023-04-29T05:21:53;101972.88;;;9.62;100.00
48668;BME280;34453;52.198;5.004;2023-04-29T05:24:19;101971.84;;;9.65;100.00
48668;BME280;34453;52.198;5.004;2023-04-29T05:26:45;101981.25;;;9.67;100.00
48668;BME280;34453;52.198;5.004;2023-04-29T05:29:10;101979.25;;;9.71;100.00
48668;BME280;34453;52.198;5.004;2023-04-29T05:31:36;101981.88;;;9.71;100.00
48668;BME280;34453;52.198;5.004;2023-04-29T05:34:03;101985.09;;;9.74;100.00
48668;BME280;34453;52.198;5.004;2023-04-29T05:36:29;101993.78;;;9.75;100.00
48668;BME280;34453;52.198;5.004;2023-04-29T05:38:54;101984.78;;;9.79;100.00
48668;BME280;34453;52.198;5.004;2023-04-29T05:41:19;101990.41;;;9.86;100.00
48668;BME280;34453;52.198;5.004;2023-04-29T05:43:45;101994.34;;;9.91;100.00
48668;BME280;34453;52.198;5.004;2023-04-29T05:46:11;101992.69;;;9.90;100.00
48668;BME280;34453;52.198;5.004;2023-04-29T05:48:36;101998.97;;;9.88;100.00
48668;BME280;34453;52.198;5.004;2023-04-29T05:51:01;101999.59;;;9.91;100.00
48668;BME280;34453;52.198;5.004;2023-04-29T05:53:27;102013.38;;;9.93;100.00
48668;BME280;34453;52.198;5.004;2023-04-29T05:55:53;102011.94;;;9.89;100.00
48668;BME280;34453;52.198;5.004;2023-04-29T05:58:18;102015.28;;;9.91;100.00
48668;BME280;34453;52.198;5.004;2023-04-29T06:00:44;102010.69;;;9.82;100.00
48668;BME280;34453;52.198;5.004;2023-04-29T06:03:10;102023.25;;;9.77;100.00
48668;BME280;34453;52.198;5.004;2023-04-29T06:05:36;102029.72;;;9.84;100.00
48668;BME280;34453;52.198;5.004;2023-04-29T06:08:03;102029.28;;;9.90;100.00
48668;BME280;34453;52.198;5.004;2023-04-29T06:10:29;102035.75;;;9.98;100.00
48668;BME280;34453;52.198;5.004;2023-04-29T06:12:54;102035.56;;;10.01;100.00
48668;BME280;34453;52.198;5.004;2023-04-29T06:15:20;102040.13;;;10.10;100.00
48668;BME280;34453;52.198;5.004;2023-04-29T06:17:46;102046.38;;;10.20;100.00
48668;BME280;34453;52.198;5.004;2023-04-29T06:20:12;102043.66;;;10.34;100.00
48668;BME280;34453;52.198;5.004;2023-04-29T06:22:37;102041.88;;;10.59;100.00
48668;BME280;34453;52.198;5.004;2023-04-29T06:25:03;102044.16;;;10.64;100.00
48668;BME280;34453;52.198;5.004;2023-04-29T06:27:29;102043.81;;;10.68;100.00
48668;BME280;34453;52.198;5.004;2023-04-29T06:29:54;102054.19;;;10.70;100.00
48668;BME280;34453;52.198;5.004;2023-04-29T06:32:20;102059.50;;;10.68;100.00
48668;BME280;34453;52.198;5.004;2023-04-29T06:34:46;102065.97;;;10.75;100.00
48668;BME280;34453;52.198;5.004;2023-04-29T06:37:11;102059.50;;;10.68;100.00
48668;BME280;34453;52.198;5.004;2023-04-29T06:39:37;102064.81;;;10.79;100.00
48668;BME280;34453;52.198;5.004;2023-04-29T06:42:02;102066.25;;;10.84;100.00
48668;BME280;34453;52.198;5.004;2023-04-29T06:44:28;102068.28;;;10.91;100.00
48668;BME280;34453;52.198;5.004;2023-04-29T06:46:53;102067.00;;;10.97;100.00
48668;BME280;34453;52.198;5.004;2023-04-29T06:49:19;102063.91;;;10.92;100.00
48668;BME280;34453;52.198;5.004;2023-04-29T06:51:44;102065.13;;;10.99;100.00
48668;BME280;34453;52.198;5.004;2023-04-29T06:54:10;102068.22;;;11.04;100.00
48668;BME280;34453;52.198;5.004;2023-04-29T06:56:35;102069.44;;;11.11;100.00
48668;BME280;34453;52.198;5.004;2023-04-29T06:59:00;102075.28;;;11.15;100.00
48668;BME280;34453;52.198;5.004;2023-04-29T07:01:26;102079.81;;;11.24;100.00
48668;BME280;34453;52.198;5.004;2023-04-29T07:03:51;102073.16;;;11.20;100.00
48668;BME280;34453;52.198;5.004;2023-04-29T07:06:17;102078.06;;;11.36;100.00
48668;BME280;34453;52.198;5.004;2023-04-29T07:08:42;102083.91;;;11.39;100.00
48668;BME280;34453;52.198;5.004;2023-04-29T07:11:08;102084.75;;;11.40;100.00
48668;BME280;34453;52.198;5.004;2023-04-29T07:13:33;102088.59;;;11.47;100.00
48668;BME280;34453;52.198;5.004;2023-04-29T07:15:59;102089.78;;;11.54;100.00
48668;BME280;34453;52.198;5.004;2023-04-29T07:18:24;102094.06;;;11.55;100.00
48668;BME280;34453;52.198;5.004;2023-04-29T07:20:50;102093.34;;;11.65;100.00
48668;BME280;34453;52.198;5.004;2023-04-29T07:23:17;102105.06;;;11.72;100.00
48668;BME280;34453;52.198;5.004;2023-04-29T07:25:42;102103.84;;;11.76;100.00
48668;BME280;34453;52.198;5.004;2023-04-29T07:28:08;102097.78;;;11.87;100.00
48668;BME280;34453;52.198;5.004;2023-04-29T07:30:33;102106.41;;;11.89;100.00
48668;BME280;34453;52.198;5.004;2023-04-29T07:33:00;102103.41;;;11.93;100.00
48668;BME280;34453;52.198;5.004;2023-04-29T07:35:25;102095.69;;;11.92;100.00
48668;BME280;34453;52.198;5.004;2023-04-29T07:37:51;102101.78;;;11.92;100.00
48668;BME280;34453;52.198;5.004;2023-04-29T07:40:18;102104.81;;;11.86;100.00
48668;BME280;34453;52.198;5.004;2023-04-29T07:42:43;102102.94;;;11.88;100.00
48668;BME280;34453;52.198;5.004;2023-04-29T07:45:09;102110.56;;;11.91;100.00
48668;BME280;34453;52.198;5.004;2023-04-29T07:47:36;102112.63;;;12.10;100.00
48668;BME280;34453;52.198;5.004;2023-04-29T07:50:02;102112.59;;;12.21;100.00
48668;BME280;34453;52.198;5.004;2023-04-29T07:52:27;102119.97;;;12.39;100.00
48668;BME280;34453;52.198;5.004;2023-04-29T07:54:52;102126.16;;;12.49;100.00
48668;BME280;34453;52.198;5.004;2023-04-29T07:57:20;102118.75;;;12.54;100.00
48668;BME280;34453;52.198;5.004;2023-04-29T07:59:46;102121.59;;;12.62;100.00
48668;BME280;34453;52.198;5.004;2023-04-29T08:02:11;102125.53;;;12.68;100.00
48668;BME280;34453;52.198;5.004;2023-04-29T08:04:38;102125.03;;;12.74;100.00
48668;BME280;34453;52.198;5.004;2023-04-29T08:07:07;102126.19;;;12.81;100.00
48668;BME280;34453;52.198;5.004;2023-04-29T08:09:33;102123.78;;;12.90;100.00
48668;BME280;34453;52.198;5.004;2023-04-29T08:11:59;102126.44;;;12.90;100.00
48668;BME280;34453;52.198;5.004;2023-04-29T08:14:25;102133.34;;;12.91;100.00
48668;BME280;34453;52.198;5.004;2023-04-29T08:16:51;102127.31;;;13.00;100.00
48668;BME280;34453;52.198;5.004;2023-04-29T08:19:16;102133.84;;;13.17;100.00
48668;BME280;34453;52.198;5.004;2023-04-29T08:21:41;102120.75;;;13.26;100.00
48668;BME280;34453;52.198;5.004;2023-04-29T08:24:07;102126.25;;;13.35;100.00
48668;BME280;34453;52.198;5.004;2023-04-29T08:26:33;102132.91;;;13.39;100.00
48668;BME280;34453;52.198;5.004;2023-04-29T08:28:58;102137.97;;;13.31;100.00
48668;BME280;34453;52.198;5.004;2023-04-29T08:31:24;102133.69;;;13.18;100.00
48668;BME280;34453;52.198;5.004;2023-04-29T08:33:50;102133.88;;;13.26;100.00
48668;BME280;34453;52.198;5.004;2023-04-29T08:36:15;102132.91;;;13.39;100.00
48668;BME280;34453;52.198;5.004;2023-04-29T08:38:41;102133.75;;;13.39;100.00
48668;BME280;34453;52.198;5.004;2023-04-29T08:41:07;102129.75;;;13.45;100.00
48668;BME280;34453;52.198;5.004;2023-04-29T08:43:34;102140.03;;;13.48;100.00
48668;BME280;34453;52.198;5.004;2023-04-29T08:46:05;102139.25;;;13.57;100.00
48668;BME280;34453;52.198;5.004;2023-04-29T08:48:33;102140.56;;;13.63;100.00
48668;BME280;34453;52.198;5.004;2023-04-29T08:51:00;102128.84;;;13.77;100.00
48668;BME280;34453;52.198;5.004;2023-04-29T08:53:26;102133.91;;;13.89;100.00
48668;BME280;34453;52.198;5.004;2023-04-29T08:55:53;102144.28;;;13.91;100.00
48668;BME280;34453;52.198;5.004;2023-04-29T08:58:19;102142.66;;;14.00;100.00
48668;BME280;34453;52.198;5.004;2023-04-29T09:00:47;102145.59;;;14.06;100.00
48668;BME280;34453;52.198;5.004;2023-04-29T09:03:15;102156.00;;;14.08;100.00
48668;BME280;34453;52.198;5.004;2023-04-29T09:05:42;102161.75;;;14.23;100.00
48668;BME280;34453;52.198;5.004;2023-04-29T09:08:11;102164.09;;;14.26;100.00
48668;BME280;34453;52.198;5.004;2023-04-29T09:10:38;102161.19;;;14.29;100.00
48668;BME280;34453;52.198;5.004;2023-04-29T09:13:06;102160.38;;;14.38;100.00
48668;BME280;34453;52.198;5.004;2023-04-29T09:15:35;102161.38;;;14.47;100.00
48668;BME280;34453;52.198;5.004;2023-04-29T09:18:02;102169.75;;;14.52;100.00
48668;BME280;34453;52.198;5.004;2023-04-29T09:20:29;102163.78;;;14.50;100.00
48668;BME280;34453;52.198;5.004;2023-04-29T09:22:55;102164.09;;;14.57;100.00
48668;BME280;34453;52.198;5.004;2023-04-29T09:25:22;102163.63;;;14.51;100.00
48668;BME280;34453;52.198;5.004;2023-04-29T09:27:47;102168.56;;;14.66;100.00
48668;BME280;34453;52.198;5.004;2023-04-29T09:30:13;102171.63;;;14.81;100.00
48668;BME280;34453;52.198;5.004;2023-04-29T09:32:41;102165.25;;;14.83;100.00
48668;BME280;34453;52.198;5.004;2023-04-29T09:35:23;102167.03;;;14.73;100.00
48668;BME280;34453;52.198;5.004;2023-04-29T09:37:50;102175.47;;;14.67;100.00
48668;BME280;34453;52.198;5.004;2023-04-29T09:40:31;102175.34;;;14.68;100.00
48668;BME280;34453;52.198;5.004;2023-04-29T09:42:58;102181.31;;;14.80;100.00
48668;BME280;34453;52.198;5.004;2023-04-29T09:45:38;102183.06;;;14.60;100.00
48668;BME280;34453;52.198;5.004;2023-04-29T09:48:06;102189.22;;;14.80;100.00
48668;BME280;34453;52.198;5.004;2023-04-29T09:50:34;102185.34;;;14.84;100.00
48668;BME280;34453;52.198;5.004;2023-04-29T09:53:02;102186.63;;;14.90;100.00
48668;BME280;34453;52.198;5.004;2023-04-29T09:55:28;102178.00;;;14.98;100.00
48668;BME280;34453;52.198;5.004;2023-04-29T09:57:54;102180.81;;;15.06;100.00
48668;BME280;34453;52.198;5.004;2023-04-29T10:00:20;102184.97;;;15.08;100.00
48668;BME280;34453;52.198;5.004;2023-04-29T10:02:47;102185.25;;;15.15;100.00
48668;BME280;34453;52.198;5.004;2023-04-29T10:05:14;102180.94;;;15.24;100.00
48668;BME280;34453;52.198;5.004;2023-04-29T10:07:41;102187.75;;;15.26;100.00
48668;BME280;34453;52.198;5.004;2023-04-29T10:10:07;102195.78;;;15.15;100.00
48668;BME280;34453;52.198;5.004;2023-04-29T10:12:35;102187.47;;;15.20;100.00
48668;BME280;34453;52.198;5.004;2023-04-29T10:15:44;102198.44;;;15.34;100.00
48668;BME280;34453;52.198;5.004;2023-04-29T10:20:45;102189.97;;;15.41;100.00
48668;BME280;34453;52.198;5.004;2023-04-29T10:23:12;102192.31;;;15.24;100.00
48668;BME280;34453;52.198;5.004;2023-04-29T10:25:39;102200.34;;;15.42;100.00
48668;BME280;34453;52.198;5.004;2023-04-29T10:28:09;102192.47;;;15.52;100.00
48668;BME280;34453;52.198;5.004;2023-04-29T10:30:39;102199.13;;;15.46;100.00
48668;BME280;34453;52.198;5.004;2023-04-29T10:33:09;102192.47;;;15.52;100.00
48668;BME280;34453;52.198;5.004;2023-04-29T10:35:36;102196.47;;;15.66;100.00
48668;BME280;34453;52.198;5.004;2023-04-29T10:38:09;102194.09;;;15.82;100.00
48668;BME280;34453;52.198;5.004;2023-04-29T10:40:40;102194.47;;;15.87;100.00
48668;BME280;34453;52.198;5.004;2023-04-29T10:43:06;102190.72;;;16.00;100.00
48668;BME280;34453;52.198;5.004;2023-04-29T10:45:32;102197.53;;;15.83;100.00
48668;BME280;34453;52.198;5.004;2023-04-29T10:51:01;102190.84;;;15.98;100.00
48668;BME280;34453;52.198;5.004;2023-04-29T10:53:27;102183.72;;;16.08;100.00
48668;BME280;34453;52.198;5.004;2023-04-29T10:55:57;102193.66;;;16.24;100.00
48668;BME280;34453;52.198;5.004;2023-04-29T11:01:09;102199.00;;;16.14;100.00
48668;BME280;34453;52.198;5.004;2023-04-29T11:03:48;102205.97;;;16.06;100.00
48668;BME280;34453;52.198;5.004;2023-04-29T11:06:15;102205.72;;;15.99;100.00
48668;BME280;34453;52.198;5.004;2023-04-29T11:08:40;102198.31;;;16.12;100.00
48668;BME280;34453;52.198;5.004;2023-04-29T11:11:07;102200.78;;;16.51;100.00
48668;BME280;34453;52.198;5.004;2023-04-29T11:13:38;102200.38;;;16.46;100.00
48668;BME280;34453;52.198;5.004;2023-04-29T11:16:05;102210.34;;;16.25;100.00
48668;BME280;34453;52.198;5.004;2023-04-29T11:18:31;102204.94;;;16.26;100.00
48668;BME280;34453;52.198;5.004;2023-04-29T11:23:28;102208.72;;;16.69;100.00
48668;BME280;34453;52.198;5.004;2023-04-29T11:25:54;102217.41;;;16.89;100.00
48668;BME280;34453;52.198;5.004;2023-04-29T11:28:21;102212.81;;;16.91;100.00
48668;BME280;34453;52.198;5.004;2023-04-29T11:30:49;102215.31;;;16.93;100.00
48668;BME280;34453;52.198;5.004;2023-04-29T11:33:15;102214.63;;;17.09;100.00
48668;BME280;34453;52.198;5.004;2023-04-29T11:35:41;102206.56;;;17.10;100.00
48668;BME280;34453;52.198;5.004;2023-04-29T11:38:08;102212.34;;;17.14;100.00
48668;BME280;34453;52.198;5.004;2023-04-29T11:40:34;102217.72;;;17.22;100.00
48668;BME280;34453;52.198;5.004;2023-04-29T11:42:59;102215.22;;;17.38;100.00
48668;BME280;34453;52.198;5.004;2023-04-29T11:45:25;102219.00;;;17.36;100.00
48668;BME280;34453;52.198;5.004;2023-04-29T11:47:51;102208.56;;;17.52;100.00
48668;BME280;34453;52.198;5.004;2023-04-29T11:50:17;102221.34;;;17.57;100.00
48668;BME280;34453;52.198;5.004;2023-04-29T11:52:46;102227.31;;;17.59;100.00
48668;BME280;34453;52.198;5.004;2023-04-29T11:55:12;102223.13;;;17.74;100.00
48668;BME280;34453;52.198;5.004;2023-04-29T11:57:39;102226.06;;;17.71;100.00
48668;BME280;34453;52.198;5.004;2023-04-29T12:00:08;102224.72;;;17.67;100.00
48668;BME280;34453;52.198;5.004;2023-04-29T12:02:34;102223.00;;;17.58;100.00
48668;BME280;34453;52.198;5.004;2023-04-29T12:05:05;102227.00;;;17.62;100.00
48668;BME280;34453;52.198;5.004;2023-04-29T12:07:30;102220.31;;;17.76;100.00
48668;BME280;34453;52.198;5.004;2023-04-29T12:09:56;102226.53;;;17.85;100.00
48668;BME280;34453;52.198;5.004;2023-04-29T12:12:22;102218.13;;;17.89;100.00
48668;BME280;34453;52.198;5.004;2023-04-29T12:14:48;102220.63;;;17.73;100.00
48668;BME280;34453;52.198;5.004;2023-04-29T12:17:14;102217.09;;;17.82;100.00
48668;BME280;34453;52.198;5.004;2023-04-29T12:19:41;102225.69;;;17.84;100.00
48668;BME280;34453;52.198;5.004;2023-04-29T12:22:08;102210.97;;;17.81;100.00
48668;BME280;34453;52.198;5.004;2023-04-29T12:24:37;102211.78;;;18.08;100.00
48668;BME280;34453;52.198;5.004;2023-04-29T12:27:07;102220.47;;;17.92;100.00
48668;BME280;34453;52.198;5.004;2023-04-29T12:29:35;102216.47;;;18.14;100.00
48668;BME280;34453;52.198;5.004;2023-04-29T12:32:00;102215.81;;;18.20;100.00
48668;BME280;34453;52.198;5.004;2023-04-29T12:34:30;102222.78;;;18.21;100.00
48668;BME280;34453;52.198;5.004;2023-04-29T12:36:58;102223.59;;;18.22;100.00
48668;BME280;34453;52.198;5.004;2023-04-29T12:39:27;102230.56;;;18.23;100.00
48668;BME280;34453;52.198;5.004;2023-04-29T12:41:56;102229.16;;;18.45;100.00
48668;BME280;34453;52.198;5.004;2023-04-29T12:44:22;102224.44;;;18.65;100.00
48668;BME280;34453;52.198;5.004;2023-04-29T12:46:47;102234.47;;;18.45;100.00
48668;BME280;34453;52.198;5.004;2023-04-29T12:49:13;102238.63;;;18.48;100.00
48668;BME280;34453;52.198;5.004;2023-04-29T12:51:39;102231.41;;;18.66;100.00
48668;BME280;34453;52.198;5.004;2023-04-29T12:54:05;102237.78;;;18.47;100.00
48668;BME280;34453;52.198;5.004;2023-04-29T12:56:32;102237.94;;;18.11;100.00
48668;BME280;34453;52.198;5.004;2023-04-29T12:59:08;102240.09;;;18.42;100.00